sensor_id;sensor_type;location;lat;lon;timestamp;temperature;humidity
2893;DHT22;1456;51.840;12.184;2023-05-16T00:01:18;13.00;99.90
2893;DHT22;1456;51.840;12.184;2023-05-16T00:03:50;13.00;99.90
2893;DHT22;1456;51.840;12.184;2023-05-16T00:06:15;12.90;99.90
2893;DHT22;1456;51.840;12.184;2023-05-16T00:08:41;12.90;99.90
2893;DHT22;1456;51.840;12.184;2023-05-16T00:11:07;12.90;99.90
2893;DHT22;1456;51.840;12.184;2023-05-16T00:13:36;12.90;99.90
2893;DHT22;1456;51.840;12.184;2023-05-16T00:16:03;12.80;99.90
2893;DHT22;1456;51.840;12.184;2023-05-16T00:18:29;12.80;99.90
2893;DHT22;1456;51.840;12.184;2023-05-16T00:20:55;12.70;99.90
2893;DHT22;1456;51.840;12.184;2023-05-16T00:23:23;12.70;99.90
2893;DHT22;1456;51.840;12.184;2023-05-16T00:25:49;12.60;99.90
2893;DHT22;1456;51.840;12.184;2023-05-16T00:28:15;12.60;99.90
2893;DHT22;1456;51.840;12.184;2023-05-16T00:30:41;12.60;99.90
2893;DHT22;1456;51.840;12.184;2023-05-16T00:33:07;12.60;99.90
2893;DHT22;1456;51.840;12.184;2023-05-16T00:35:32;12.50;99.90
2893;DHT22;1456;51.840;12.184;2023-05-16T00:37:59;12.50;99.90
2893;DHT22;1456;51.840;12.184;2023-05-16T00:40:25;12.40;99.90
2893;DHT22;1456;51.840;12.184;2023-05-16T00:42:51;12.40;99.90
2893;DHT22;1456;51.840;12.184;2023-05-16T00:45:16;12.40;99.90
2893;DHT22;1456;51.840;12.184;2023-05-16T00:47:45;12.30;99.90
2893;DHT22;1456;51.840;12.184;2023-05-16T00:50:12;12.30;99.90
2893;DHT22;1456;51.840;12.184;2023-05-16T00:52:37;12.20;99.90
2893;DHT22;1456;51.840;12.184;2023-05-16T00:55:06;12.20;99.90
2893;DHT22;1456;51.840;12.184;2023-05-16T00:57:32;12.10;99.90
2893;DHT22;1456;51.840;12.184;2023-05-16T00:59:58;12.10;99.90
2893;DHT22;1456;51.840;12.184;2023-05-16T01:02:24;12.00;99.90
2893;DHT22;1456;51.840;12.184;2023-05-16T01:04:54;12.00;99.90
2893;DHT22;1456;51.840;12.184;2023-05-16T01:07:21;12.00;99.90
2893;DHT22;1456;51.840;12.184;2023-05-16T01:09:47;12.00;99.90
2893;DHT22;1456;51.840;12.184;2023-05-16T01:20:32;11.80;99.90
2893;DHT22;1456;51.840;12.184;2023-05-16T01:26:06;11.70;99.90
2893;DHT22;1456;51.840;12.184;2023-05-16T01:28:33;11.60;99.90
2893;DHT22;1456;51.840;12.184;2023-05-16T01:30:59;11.50;99.90
2893;DHT22;1456;51.840;12.184;2023-05-16T01:33:25;11.40;99.90
2893;DHT22;1456;51.840;12.184;2023-05-16T01:38:59;11.10;99.90
2893;DHT22;1456;51.840;12.184;2023-05-16T01:41:52;11.00;99.90
2893;DHT22;1456;51.840;12.184;2023-05-16T01:47:40;10.70;99.90
2893;DHT22;1456;51.840;12.184;2023-05-16T01:50:16;10.50;99.90
2893;DHT22;1456;51.840;12.184;2023-05-16T01:55:41;10.40;99.90
2893;DHT22;1456;51.840;12.184;2023-05-16T01:58:17;10.30;99.90
2893;DHT22;1456;51.840;12.184;2023-05-16T02:00:44;10.30;99.90
2893;DHT22;1456;51.840;12.184;2023-05-16T02:03:10;10.30;99.90
2893;DHT22;1456;51.840;12.184;2023-05-16T02:05:38;10.40;99.90
2893;DHT22;1456;51.840;12.184;2023-05-16T02:08:03;10.30;99.90
2893;DHT22;1456;51.840;12.184;2023-05-16T02:10:31;10.30;99.90
2893;DHT22;1456;51.840;12.184;2023-05-16T02:12:57;10.30;99.90
2893;DHT22;1456;51.840;12.184;2023-05-16T02:15:23;10.30;99.90
2893;DHT22;1456;51.840;12.184;2023-05-16T02:17:48;10.20;99.90
2893;DHT22;1456;51.840;12.184;2023-05-16T02:20:14;10.20;99.90
2893;DHT22;1456;51.840;12.184;2023-05-16T02:22:40;10.20;99.90
2893;DHT22;1456;51.840;12.184;2023-05-16T02:25:07;10.10;99.90
2893;DHT22;1456;51.840;12.184;2023-05-16T02:27:33;10.10;99.90
2893;DHT22;1456;51.840;12.184;2023-05-16T02:30:01;10.10;99.90
2893;DHT22;1456;51.840;12.184;2023-05-16T02:32:26;10.10;99.90
2893;DHT22;1456;51.840;12.184;2023-05-16T02:34:54;10.00;99.90
2893;DHT22;1456;51.840;12.184;2023-05-16T02:37:20;9.90;99.90
2893;DHT22;1456;51.840;12.184;2023-05-16T02:39:46;10.00;99.90
2893;DHT22;1456;51.840;12.184;2023-05-16T02:42:13;10.00;99.90
2893;DHT22;1456;51.840;12.184;2023-05-16T02:44:39;10.00;99.90
2893;DHT22;1456;51.840;12.184;2023-05-16T02:47:04;10.00;99.90
2893;DHT22;1456;51.840;12.184;2023-05-16T02:49:30;10.00;99.90
2893;DHT22;1456;51.840;12.184;2023-05-16T02:51:57;9.90;99.90
2893;DHT22;1456;51.840;12.184;2023-05-16T02:54:22;10.00;99.90
2893;DHT22;1456;51.840;12.184;2023-05-16T02:56:48;10.00;99.90
2893;DHT22;1456;51.840;12.184;2023-05-16T02:59:14;10.00;99.90
2893;DHT22;1456;51.840;12.184;2023-05-16T03:01:39;10.00;99.90
2893;DHT22;1456;51.840;12.184;2023-05-16T03:04:05;10.00;99.90
2893;DHT22;1456;51.840;12.184;2023-05-16T03:06:33;10.10;99.90
2893;DHT22;1456;51.840;12.184;2023-05-16T03:08:58;10.10;99.90
2893;DHT22;1456;51.840;12.184;2023-05-16T03:11:25;10.10;99.90
2893;DHT22;1456;51.840;12.184;2023-05-16T03:13:53;10.10;99.90
2893;DHT22;1456;51.840;12.184;2023-05-16T03:16:20;10.10;99.90
2893;DHT22;1456;51.840;12.184;2023-05-16T03:18:46;10.10;99.90
2893;DHT22;1456;51.840;12.184;2023-05-16T03:21:12;10.10;99.90
2893;DHT22;1456;51.840;12.184;2023-05-16T03:23:38;10.10;99.90
2893;DHT22;1456;51.840;12.184;2023-05-16T03:26:04;10.10;99.90
2893;DHT22;1456;51.840;12.184;2023-05-16T03:28:30;10.20;99.90
2893;DHT22;1456;51.840;12.184;2023-05-16T03:30:56;10.20;99.90
2893;DHT22;1456;51.840;12.184;2023-05-16T03:33:24;10.30;99.90
2893;DHT22;1456;51.840;12.184;2023-05-16T03:35:50;10.30;99.90
2893;DHT22;1456;51.840;12.184;2023-05-16T03:38:16;10.40;99.90
2893;DHT22;1456;51.840;12.184;2023-05-16T03:40:43;10.40;99.90
2893;DHT22;1456;51.840;12.184;2023-05-16T03:43:09;10.50;99.90
2893;DHT22;1456;51.840;12.184;2023-05-16T03:45:34;10.50;99.90
2893;DHT22;1456;51.840;12.184;2023-05-16T03:48:01;10.40;99.90
2893;DHT22;1456;51.840;12.184;2023-05-16T03:50:27;10.40;99.90
2893;DHT22;1456;51.840;12.184;2023-05-16T03:52:54;10.50;99.90
2893;DHT22;1456;51.840;12.184;2023-05-16T03:55:20;10.60;99.90
2893;DHT22;1456;51.840;12.184;2023-05-16T03:57:46;10.60;99.90
2893;DHT22;1456;51.840;12.184;2023-05-16T04:00:13;10.60;99.90
2893;DHT22;1456;51.840;12.184;2023-05-16T04:02:39;10.60;99.90
2893;DHT22;1456;51.840;12.184;2023-05-16T04:05:09;10.60;99.90
2893;DHT22;1456;51.840;12.184;2023-05-16T04:07:36;10.70;99.90
2893;DHT22;1456;51.840;12.184;2023-05-16T04:10:03;10.70;99.90
2893;DHT22;1456;51.840;12.184;2023-05-16T04:12:28;10.70;99.90
2893;DHT22;1456;51.840;12.184;2023-05-16T04:14:56;10.60;99.90
2893;DHT22;1456;51.840;12.184;2023-05-16T04:17:22;10.60;99.90
2893;DHT22;1456;51.840;12.184;2023-05-16T04:19:49;10.50;99.90
2893;DHT22;1456;51.840;12.184;2023-05-16T04:22:16;10.50;99.90
2893;DHT22;1456;51.840;12.184;2023-05-16T04:24:43;10.50;99.90
2893;DHT22;1456;51.840;12.184;2023-05-16T04:27:09;10.60;99.90
2893;DHT22;1456;51.840;12.184;2023-05-16T04:29:36;10.60;99.90
2893;DHT22;1456;51.840;12.184;2023-05-16T04:32:02;10.60;99.90
2893;DHT22;1456;51.840;12.184;2023-05-16T04:34:30;10.50;99.90
2893;DHT22;1456;51.840;12.184;2023-05-16T04:36:57;10.60;99.90
2893;DHT22;1456;51.840;12.184;2023-05-16T04:39:23;10.60;99.90
2893;DHT22;1456;51.840;12.184;2023-05-16T04:41:49;10.60;99.90
2893;DHT22;1456;51.840;12.184;2023-05-16T04:44:14;10.70;99.90
2893;DHT22;1456;51.840;12.184;2023-05-16T04:46:40;10.70;99.90
2893;DHT22;1456;51.840;12.184;2023-05-16T04:49:06;10.60;99.90
2893;DHT22;1456;51.840;12.184;2023-05-16T04:51:33;10.60;99.90
2893;DHT22;1456;51.840;12.184;2023-05-16T04:53:59;10.60;99.90
2893;DHT22;1456;51.840;12.184;2023-05-16T04:56:26;10.60;99.90
2893;DHT22;1456;51.840;12.184;2023-05-16T04:58:52;10.60;99.90
2893;DHT22;1456;51.840;12.184;2023-05-16T05:01:19;10.60;99.90
2893;DHT22;1456;51.840;12.184;2023-05-16T05:03:46;10.70;99.90
2893;DHT22;1456;51.840;12.184;2023-05-16T05:06:12;10.90;99.90
2893;DHT22;1456;51.840;12.184;2023-05-16T05:08:38;11.00;99.90
2893;DHT22;1456;51.840;12.184;2023-05-16T05:11:05;11.00;99.90
2893;DHT22;1456;51.840;12.184;2023-05-16T05:13:31;11.20;99.90
2893;DHT22;1456;51.840;12.184;2023-05-16T05:15:56;11.20;99.90
2893;DHT22;1456;51.840;12.184;2023-05-16T05:18:23;11.20;99.90
2893;DHT22;1456;51.840;12.184;2023-05-16T05:20:49;11.30;99.90
2893;DHT22;1456;51.840;12.184;2023-05-16T05:23:16;11.30;99.90
2893;DHT22;1456;51.840;12.184;2023-05-16T05:25:41;11.40;99.90
2893;DHT22;1456;51.840;12.184;2023-05-16T05:28:07;11.50;99.90
2893;DHT22;1456;51.840;12.184;2023-05-16T05:30:32;11.50;99.90
2893;DHT22;1456;51.840;12.184;2023-05-16T05:32:59;11.50;99.90
2893;DHT22;1456;51.840;12.184;2023-05-16T05:35:27;11.60;99.90
2893;DHT22;1456;51.840;12.184;2023-05-16T05:37:52;11.70;99.90
2893;DHT22;1456;51.840;12.184;2023-05-16T05:40:18;11.70;99.90
2893;DHT22;1456;51.840;12.184;2023-05-16T05:42:43;11.70;99.90
2893;DHT22;1456;51.840;12.184;2023-05-16T05:45:09;11.70;99.90
2893;DHT22;1456;51.840;12.184;2023-05-16T05:47:35;11.60;99.90
2893;DHT22;1456;51.840;12.184;2023-05-16T05:50:02;11.60;99.90
2893;DHT22;1456;51.840;12.184;2023-05-16T05:52:28;11.60;99.90
2893;DHT22;1456;51.840;12.184;2023-05-16T05:54:54;11.60;99.90
2893;DHT22;1456;51.840;12.184;2023-05-16T05:57:21;11.60;99.90
2893;DHT22;1456;51.840;12.184;2023-05-16T05:59:47;11.60;99.90
2893;DHT22;1456;51.840;12.184;2023-05-16T06:02:13;11.70;99.90
2893;DHT22;1456;51.840;12.184;2023-05-16T06:04:38;11.70;99.90
2893;DHT22;1456;51.840;12.184;2023-05-16T06:07:07;11.70;99.90
2893;DHT22;1456;51.840;12.184;2023-05-16T06:09:32;11.80;99.90
2893;DHT22;1456;51.840;12.184;2023-05-16T06:11:59;11.90;99.90
2893;DHT22;1456;51.840;12.184;2023-05-16T06:14:25;11.90;99.90
2893;DHT22;1456;51.840;12.184;2023-05-16T06:16:51;11.90;99.90
2893;DHT22;1456;51.840;12.184;2023-05-16T06:19:18;11.90;99.90
2893;DHT22;1456;51.840;12.184;2023-05-16T06:21:43;11.90;99.90
2893;DHT22;1456;51.840;12.184;2023-05-16T06:24:09;11.90;99.90
2893;DHT22;1456;51.840;12.184;2023-05-16T06:26:36;12.00;99.90
2893;DHT22;1456;51.840;12.184;2023-05-16T06:29:04;12.10;99.90
2893;DHT22;1456;51.840;12.184;2023-05-16T06:31:30;12.00;99.90
2893;DHT22;1456;51.840;12.184;2023-05-16T06:33:56;12.10;99.90
2893;DHT22;1456;51.840;12.184;2023-05-16T06:36:22;12.10;99.90
2893;DHT22;1456;51.840;12.184;2023-05-16T06:38:51;12.00;99.90
2893;DHT22;1456;51.840;12.184;2023-05-16T06:41:18;11.90;99.90
2893;DHT22;1456;51.840;12.184;2023-05-16T06:43:43;11.80;99.90
2893;DHT22;1456;51.840;12.184;2023-05-16T06:46:09;11.90;99.90
2893;DHT22;1456;51.840;12.184;2023-05-16T06:48:36;12.00;99.90
2893;DHT22;1456;51.840;12.184;2023-05-16T06:51:01;12.10;99.90
2893;DHT22;1456;51.840;12.184;2023-05-16T06:53:28;12.10;99.90
2893;DHT22;1456;51.840;12.184;2023-05-16T06:55:54;12.20;99.90
2893;DHT22;1456;51.840;12.184;2023-05-16T06:58:20;12.20;99.90
2893;DHT22;1456;51.840;12.184;2023-05-16T07:00:48;12.20;99.90
2893;DHT22;1456;51.840;12.184;2023-05-16T07:03:14;12.30;99.90
2893;DHT22;1456;51.840;12.184;2023-05-16T07:05:39;12.30;99.90
2893;DHT22;1456;51.840;12.184;2023-05-16T07:08:08;12.30;99.90
2893;DHT22;1456;51.840;12.184;2023-05-16T07:10:39;12.30;99.90
2893;DHT22;1456;51.840;12.184;2023-05-16T07:13:05;12.40;99.90
2893;DHT22;1456;51.840;12.184;2023-05-16T07:15:32;12.80;99.90
2893;DHT22;1456;51.840;12.184;2023-05-16T07:17:58;13.10;99.90
2893;DHT22;1456;51.840;12.184;2023-05-16T07:20:24;13.20;99.90
2893;DHT22;1456;51.840;12.184;2023-05-16T07:22:50;13.30;99.90
2893;DHT22;1456;51.840;12.184;2023-05-16T07:25:22;13.50;99.90
2893;DHT22;1456;51.840;12.184;2023-05-16T07:27:50;13.50;99.90
2893;DHT22;1456;51.840;12.184;2023-05-16T07:30:17;13.50;99.90
2893;DHT22;1456;51.840;12.184;2023-05-16T07:32:42;13.50;99.90
2893;DHT22;1456;51.840;12.184;2023-05-16T07:35:08;13.40;99.90
2893;DHT22;1456;51.840;12.184;2023-05-16T07:37:36;13.50;99.90
2893;DHT22;1456;51.840;12.184;2023-05-16T07:40:02;13.50;99.90
2893;DHT22;1456;51.840;12.184;2023-05-16T07:42:30;13.50;99.90
2893;DHT22;1456;51.840;12.184;2023-05-16T07:44:56;13.40;99.90
2893;DHT22;1456;51.840;12.184;2023-05-16T07:47:22;13.30;99.90
2893;DHT22;1456;51.840;12.184;2023-05-16T07:49:49;13.30;99.90
2893;DHT22;1456;51.840;12.184;2023-05-16T07:52:16;13.40;99.90
2893;DHT22;1456;51.840;12.184;2023-05-16T07:54:48;13.30;99.90
2893;DHT22;1456;51.840;12.184;2023-05-16T07:57:16;13.20;99.90
2893;DHT22;1456;51.840;12.184;2023-05-16T07:59:45;13.00;99.90
2893;DHT22;1456;51.840;12.184;2023-05-16T08:02:20;12.80;99.90
2893;DHT22;1456;51.840;12.184;2023-05-16T08:04:53;12.80;99.90
2893;DHT22;1456;51.840;12.184;2023-05-16T08:07:19;12.60;99.90
2893;DHT22;1456;51.840;12.184;2023-05-16T08:09:45;12.60;99.90
2893;DHT22;1456;51.840;12.184;2023-05-16T08:12:15;12.50;99.90
2893;DHT22;1456;51.840;12.184;2023-05-16T08:14:40;12.50;99.90
2893;DHT22;1456;51.840;12.184;2023-05-16T08:17:06;12.30;99.90
2893;DHT22;1456;51.840;12.184;2023-05-16T08:19:44;12.20;99.90
2893;DHT22;1456;51.840;12.184;2023-05-16T08:22:12;12.20;99.90
2893;DHT22;1456;51.840;12.184;2023-05-16T08:24:40;12.30;99.90
2893;DHT22;1456;51.840;12.184;2023-05-16T08:27:18;12.50;99.90
2893;DHT22;1456;51.840;12.184;2023-05-16T08:29:45;12.70;99.90
2893;DHT22;1456;51.840;12.184;2023-05-16T08:32:12;13.00;99.90
2893;DHT22;1456;51.840;12.184;2023-05-16T08:34:39;13.50;99.90
2893;DHT22;1456;51.840;12.184;2023-05-16T08:37:05;14.00;99.90
2893;DHT22;1456;51.840;12.184;2023-05-16T08:39:41;14.10;99.90
2893;DHT22;1456;51.840;12.184;2023-05-16T08:42:08;14.10;99.90
2893;DHT22;1456;51.840;12.184;2023-05-16T08:44:39;14.20;99.90
2893;DHT22;1456;51.840;12.184;2023-05-16T08:47:12;14.40;99.90
2893;DHT22;1456;51.840;12.184;2023-05-16T08:49:43;14.80;99.90
2893;DHT22;1456;51.840;12.184;2023-05-16T08:52:21;15.00;99.90
2893;DHT22;1456;51.840;12.184;2023-05-16T08:54:56;15.00;99.90
2893;DHT22;1456;51.840;12.184;2023-05-16T08:57:34;14.90;99.90
2893;DHT22;1456;51.840;12.184;2023-05-16T09:00:00;14.70;99.90
2893;DHT22;1456;51.840;12.184;2023-05-16T09:02:33;14.40;99.90
2893;DHT22;1456;51.840;12.184;2023-05-16T09:04:59;14.20;99.90
2893;DHT22;1456;51.840;12.184;2023-05-16T09:07:25;14.20;99.90
2893;DHT22;1456;51.840;12.184;2023-05-16T09:09:50;14.10;99.90
2893;DHT22;1456;51.840;12.184;2023-05-16T09:12:16;14.20;99.90
2893;DHT22;1456;51.840;12.184;2023-05-16T09:14:42;14.40;99.90
2893;DHT22;1456;51.840;12.184;2023-05-16T09:17:08;14.30;99.90
2893;DHT22;1456;51.840;12.184;2023-05-16T09:19:43;14.30;99.90
2893;DHT22;1456;51.840;12.184;2023-05-16T09:22:14;14.10;99.90
2893;DHT22;1456;51.840;12.184;2023-05-16T09:24:40;14.10;99.90
2893;DHT22;1456;51.840;12.184;2023-05-16T09:27:12;13.80;99.90
2893;DHT22;1456;51.840;12.184;2023-05-16T09:29:49;13.80;99.90
2893;DHT22;1456;51.840;12.184;2023-05-16T09:32:16;13.70;99.90
2893;DHT22;1456;51.840;12.184;2023-05-16T09:34:43;13.60;99.90
2893;DHT22;1456;51.840;12.184;2023-05-16T09:37:17;13.50;99.90
2893;DHT22;1456;51.840;12.184;2023-05-16T09:39:49;13.70;99.90
2893;DHT22;1456;51.840;12.184;2023-05-16T09:42:18;13.70;99.90
2893;DHT22;1456;51.840;12.184;2023-05-16T09:44:52;13.70;99.90
2893;DHT22;1456;51.840;12.184;2023-05-16T09:47:19;13.60;99.90
2893;DHT22;1456;51.840;12.184;2023-05-16T09:49:46;13.60;99.90
2893;DHT22;1456;51.840;12.184;2023-05-16T09:52:15;13.80;99.90
2893;DHT22;1456;51.840;12.184;2023-05-16T09:54:48;14.30;99.90
2893;DHT22;1456;51.840;12.184;2023-05-16T09:57:20;14.80;98.90
2893;DHT22;1456;51.840;12.184;2023-05-16T09:59:52;15.20;98.60
2893;DHT22;1456;51.840;12.184;2023-05-16T10:02:20;15.50;97.50
2893;DHT22;1456;51.840;12.184;2023-05-16T10:04:47;15.80;96.90
2893;DHT22;1456;51.840;12.184;2023-05-16T10:07:12;15.90;96.70
2893;DHT22;1456;51.840;12.184;2023-05-16T10:09:39;16.00;95.90
2893;DHT22;1456;51.840;12.184;2023-05-16T10:12:07;15.80;95.80
2893;DHT22;1456;51.840;12.184;2023-05-16T10:14:36;15.60;95.60
2893;DHT22;1456;51.840;12.184;2023-05-16T10:17:05;15.50;95.40
2893;DHT22;1456;51.840;12.184;2023-05-16T10:19:37;15.30;95.10
2893;DHT22;1456;51.840;12.184;2023-05-16T10:22:05;15.40;95.60
2893;DHT22;1456;51.840;12.184;2023-05-16T10:24:53;15.20;95.90
2893;DHT22;1456;51.840;12.184;2023-05-16T10:27:24;15.30;95.70
2893;DHT22;1456;51.840;12.184;2023-05-16T10:29:51;15.40;96.20
2893;DHT22;1456;51.840;12.184;2023-05-16T10:32:22;15.50;95.70
2893;DHT22;1456;51.840;12.184;2023-05-16T10:34:47;15.50;95.60
2893;DHT22;1456;51.840;12.184;2023-05-16T10:37:13;15.50;95.20
2893;DHT22;1456;51.840;12.184;2023-05-16T10:39:39;15.50;95.40
2893;DHT22;1456;51.840;12.184;2023-05-16T10:42:05;15.50;95.20
2893;DHT22;1456;51.840;12.184;2023-05-16T10:44:33;15.90;95.70
2893;DHT22;1456;51.840;12.184;2023-05-16T10:47:04;16.30;94.20
2893;DHT22;1456;51.840;12.184;2023-05-16T10:49:30;16.80;93.50
2893;DHT22;1456;51.840;12.184;2023-05-16T10:52:10;17.00;91.90
2893;DHT22;1456;51.840;12.184;2023-05-16T10:54:39;17.20;91.50
2893;DHT22;1456;51.840;12.184;2023-05-16T10:57:09;17.60;91.50
2893;DHT22;1456;51.840;12.184;2023-05-16T10:59:46;17.40;90.70
2893;DHT22;1456;51.840;12.184;2023-05-16T11:02:31;17.20;90.70
2893;DHT22;1456;51.840;12.184;2023-05-16T11:05:01;17.10;90.90
2893;DHT22;1456;51.840;12.184;2023-05-16T11:07:34;17.30;90.50
2893;DHT22;1456;51.840;12.184;2023-05-16T11:10:09;17.40;91.40
2893;DHT22;1456;51.840;12.184;2023-05-16T11:12:49;17.60;90.50
2893;DHT22;1456;51.840;12.184;2023-05-16T11:15:26;18.10;90.60
2893;DHT22;1456;51.840;12.184;2023-05-16T11:18:15;18.30;90.10
2893;DHT22;1456;51.840;12.184;2023-05-16T11:20:42;18.60;90.20
2893;DHT22;1456;51.840;12.184;2023-05-16T11:23:23;18.80;87.20
2893;DHT22;1456;51.840;12.184;2023-05-16T11:25:54;19.50;89.20
2893;DHT22;1456;51.840;12.184;2023-05-16T11:28:21;20.10;83.10
2893;DHT22;1456;51.840;12.184;2023-05-16T11:30:50;19.70;80.80
2893;DHT22;1456;51.840;12.184;2023-05-16T11:33:21;19.70;82.00
2893;DHT22;1456;51.840;12.184;2023-05-16T11:36:20;19.50;80.60
2893;DHT22;1456;51.840;12.184;2023-05-16T11:38:50;19.60;80.90
2893;DHT22;1456;51.840;12.184;2023-05-16T11:41:18;19.30;79.40
2893;DHT22;1456;51.840;12.184;2023-05-16T11:43:45;19.50;78.90
2893;DHT22;1456;51.840;12.184;2023-05-16T11:46:14;20.30;77.40
2893;DHT22;1456;51.840;12.184;2023-05-16T11:48:41;20.10;75.00
2893;DHT22;1456;51.840;12.184;2023-05-16T11:51:08;19.60;70.60
2893;DHT22;1456;51.840;12.184;2023-05-16T11:53:36;19.10;73.20
2893;DHT22;1456;51.840;12.184;2023-05-16T11:56:07;19.70;72.60
2893;DHT22;1456;51.840;12.184;2023-05-16T11:58:32;21.40;70.40
2893;DHT22;1456;51.840;12.184;2023-05-16T12:01:03;21.60;67.60
2893;DHT22;1456;51.840;12.184;2023-05-16T12:03:29;21.90;66.70
2893;DHT22;1456;51.840;12.184;2023-05-16T12:05:58;22.70;65.50
2893;DHT22;1456;51.840;12.184;2023-05-16T12:08:26;22.90;63.40
2893;DHT22;1456;51.840;12.184;2023-05-16T12:10:52;22.50;65.40
2893;DHT22;1456;51.840;12.184;2023-05-16T12:13:24;21.80;63.80
2893;DHT22;1456;51.840;12.184;2023-05-16T12:15:51;21.20;63.10
2893;DHT22;1456;51.840;12.184;2023-05-16T12:18:19;22.20;65.00
2893;DHT22;1456;51.840;12.184;2023-05-16T12:20:46;23.30;61.50
2893;DHT22;1456;51.840;12.184;2023-05-16T12:23:12;23.80;58.80
2893;DHT22;1456;51.840;12.184;2023-05-16T12:25:43;23.80;58.90
2893;DHT22;1456;51.840;12.184;2023-05-16T12:28:12;23.10;58.20
2893;DHT22;1456;51.840;12.184;2023-05-16T12:30:42;22.20;58.50
2893;DHT22;1456;51.840;12.184;2023-05-16T12:33:11;23.00;59.40
2893;DHT22;1456;51.840;12.184;2023-05-16T12:35:39;23.10;58.20
2893;DHT22;1456;51.840;12.184;2023-05-16T12:38:07;23.20;59.20
2893;DHT22;1456;51.840;12.184;2023-05-16T12:40:35;24.20;56.10
2893;DHT22;1456;51.840;12.184;2023-05-16T12:43:01;24.10;55.60
2893;DHT22;1456;51.840;12.184;2023-05-16T12:45:27;22.80;56.30
2893;DHT22;1456;51.840;12.184;2023-05-16T12:47:53;23.20;56.80
2893;DHT22;1456;51.840;12.184;2023-05-16T12:50:19;23.80;55.80
2893;DHT22;1456;51.840;12.184;2023-05-16T12:52:57;23.40;54.90
2893;DHT22;1456;51.840;12.184;2023-05-16T12:55:26;22.70;57.40
2893;DHT22;1456;51.840;12.184;2023-05-16T12:57:54;22.30;54.10
2893;DHT22;1456;51.840;12.184;2023-05-16T13:00:22;22.20;54.10
2893;DHT22;1456;51.840;12.184;2023-05-16T13:02:48;22.00;53.50
2893;DHT22;1456;51.840;12.184;2023-05-16T13:05:14;21.80;52.90
2893;DHT22;1456;51.840;12.184;2023-05-16T13:07:40;22.10;52.60
2893;DHT22;1456;51.840;12.184;2023-05-16T13:10:07;22.80;54.10
2893;DHT22;1456;51.840;12.184;2023-05-16T13:12:35;23.40;51.80
2893;DHT22;1456;51.840;12.184;2023-05-16T13:15:01;24.40;52.70
2893;DHT22;1456;51.840;12.184;2023-05-16T13:17:27;25.00;52.00
2893;DHT22;1456;51.840;12.184;2023-05-16T13:19:55;25.70;50.90
2893;DHT22;1456;51.840;12.184;2023-05-16T13:22:20;26.40;51.00
2893;DHT22;1456;51.840;12.184;2023-05-16T13:24:46;26.70;49.40
2893;DHT22;1456;51.840;12.184;2023-05-16T13:27:15;25.70;49.60
2893;DHT22;1456;51.840;12.184;2023-05-16T13:29:42;25.40;49.50
2893;DHT22;1456;51.840;12.184;2023-05-16T13:32:08;25.50;48.70
2893;DHT22;1456;51.840;12.184;2023-05-16T13:34:34;25.20;48.20
2893;DHT22;1456;51.840;12.184;2023-05-16T13:37:00;24.40;48.20
2893;DHT22;1456;51.840;12.184;2023-05-16T13:39:25;24.20;49.20
2893;DHT22;1456;51.840;12.184;2023-05-16T13:41:51;25.00;49.20
2893;DHT22;1456;51.840;12.184;2023-05-16T13:44:17;25.30;46.40
2893;DHT22;1456;51.840;12.184;2023-05-16T13:46:43;25.00;45.90
2893;DHT22;1456;51.840;12.184;2023-05-16T13:49:10;25.00;46.30
2893;DHT22;1456;51.840;12.184;2023-05-16T13:51:36;24.50;46.60
2893;DHT22;1456;51.840;12.184;2023-05-16T13:54:02;24.90;44.30
2893;DHT22;1456;51.840;12.184;2023-05-16T13:56:29;25.60;47.00
2893;DHT22;1456;51.840;12.184;2023-05-16T13:58:54;26.70;44.80
2893;DHT22;1456;51.840;12.184;2023-05-16T14:01:20;27.00;43.10
2893;DHT22;1456;51.840;12.184;2023-05-16T14:03:46;27.20;42.70
2893;DHT22;1456;51.840;12.184;2023-05-16T14:06:13;27.40;42.50
2893;DHT22;1456;51.840;12.184;2023-05-16T14:08:39;27.80;41.50
2893;DHT22;1456;51.840;12.184;2023-05-16T14:11:08;27.90;41.90
2893;DHT22;1456;51.840;12.184;2023-05-16T14:13:33;28.40;40.50
2893;DHT22;1456;51.840;12.184;2023-05-16T14:15:59;28.60;37.80
2893;DHT22;1456;51.840;12.184;2023-05-16T14:18:26;29.00;37.60
2893;DHT22;1456;51.840;12.184;2023-05-16T14:20:52;28.10;36.90
2893;DHT22;1456;51.840;12.184;2023-05-16T14:23:22;27.90;38.00
2893;DHT22;1456;51.840;12.184;2023-05-16T14:25:50;27.90;37.90
2893;DHT22;1456;51.840;12.184;2023-05-16T14:28:16;28.60;38.20
2893;DHT22;1456;51.840;12.184;2023-05-16T14:30:43;29.70;37.00
2893;DHT22;1456;51.840;12.184;2023-05-16T14:33:09;30.50;36.30
2893;DHT22;1456;51.840;12.184;2023-05-16T14:35:34;30.30;35.10
2893;DHT22;1456;51.840;12.184;2023-05-16T14:38:03;30.00;36.10
2893;DHT22;1456;51.840;12.184;2023-05-16T14:40:30;29.60;34.00
2893;DHT22;1456;51.840;12.184;2023-05-16T14:42:56;28.10;33.00
2893;DHT22;1456;51.840;12.184;2023-05-16T14:45:22;27.80;34.90
2893;DHT22;1456;51.840;12.184;2023-05-16T14:47:47;29.00;36.50
2893;DHT22;1456;51.840;12.184;2023-05-16T14:50:13;30.40;34.10
2893;DHT22;1456;51.840;12.184;2023-05-16T14:52:42;30.40;34.80
2893;DHT22;1456;51.840;12.184;2023-05-16T14:55:08;31.20;34.20
2893;DHT22;1456;51.840;12.184;2023-05-16T14:57:38;30.50;33.50
2893;DHT22;1456;51.840;12.184;2023-05-16T15:00:04;28.00;33.50
2893;DHT22;1456;51.840;12.184;2023-05-16T15:02:31;27.30;34.20
2893;DHT22;1456;51.840;12.184;2023-05-16T15:04:57;28.10;35.10
2893;DHT22;1456;51.840;12.184;2023-05-16T15:07:24;28.70;35.30
2893;DHT22;1456;51.840;12.184;2023-05-16T15:09:51;27.90;34.10
2893;DHT22;1456;51.840;12.184;2023-05-16T15:12:17;27.10;34.10
2893;DHT22;1456;51.840;12.184;2023-05-16T15:14:42;26.50;34.20
2893;DHT22;1456;51.840;12.184;2023-05-16T15:17:08;26.20;35.10
2893;DHT22;1456;51.840;12.184;2023-05-16T15:19:33;27.10;37.10
2893;DHT22;1456;51.840;12.184;2023-05-16T15:21:59;27.90;36.40
2893;DHT22;1456;51.840;12.184;2023-05-16T15:24:27;27.90;34.30
2893;DHT22;1456;51.840;12.184;2023-05-16T15:26:54;27.90;34.70
2893;DHT22;1456;51.840;12.184;2023-05-16T15:29:21;27.50;36.00
2893;DHT22;1456;51.840;12.184;2023-05-16T15:31:48;27.10;34.80
2893;DHT22;1456;51.840;12.184;2023-05-16T15:34:16;26.60;37.10
2893;DHT22;1456;51.840;12.184;2023-05-16T15:36:41;27.30;35.70
2893;DHT22;1456;51.840;12.184;2023-05-16T15:39:07;28.30;35.10
2893;DHT22;1456;51.840;12.184;2023-05-16T15:41:34;28.70;35.00
2893;DHT22;1456;51.840;12.184;2023-05-16T15:43:59;29.00;35.10
2893;DHT22;1456;51.840;12.184;2023-05-16T15:46:25;28.10;34.00
2893;DHT22;1456;51.840;12.184;2023-05-16T15:48:51;26.00;35.90
2893;DHT22;1456;51.840;12.184;2023-05-16T15:51:16;23.60;36.60
2893;DHT22;1456;51.840;12.184;2023-05-16T15:53:42;23.30;37.20
2893;DHT22;1456;51.840;12.184;2023-05-16T15:56:09;23.90;38.70
2893;DHT22;1456;51.840;12.184;2023-05-16T15:58:37;24.20;37.90
2893;DHT22;1456;51.840;12.184;2023-05-16T16:01:02;24.40;38.30
2893;DHT22;1456;51.840;12.184;2023-05-16T16:03:28;24.80;37.00
2893;DHT22;1456;51.840;12.184;2023-05-16T16:05:54;24.00;35.70
2893;DHT22;1456;51.840;12.184;2023-05-16T16:08:20;24.50;36.50
2893;DHT22;1456;51.840;12.184;2023-05-16T16:10:46;25.50;35.70